sensor_id;sensor_type;location;lat;lon;timestamp;P1;durP1;ratioP1;P2;durP2;ratioP2
65835;SDS011;52595;51.608;7.216;2023-04-21T00:02:05;44.55;;;20.60;;
65835;SDS011;52595;51.608;7.216;2023-04-21T00:04:30;40.97;;;20.38;;
65835;SDS011;52595;51.608;7.216;2023-04-21T00:06:56;42.95;;;19.70;;
65835;SDS011;52595;51.608;7.216;2023-04-21T00:09:25;43.22;;;21.05;;
65835;SDS011;52595;51.608;7.216;2023-04-21T00:11:51;47.17;;;20.83;;
65835;SDS011;52595;51.608;7.216;2023-04-21T00:14:16;45.60;;;20.75;;
65835;SDS011;52595;51.608;7.216;2023-04-21T00:16:41;42.38;;;20.00;;
65835;SDS011;52595;51.608;7.216;2023-04-21T00:19:07;44.92;;;21.00;;
65835;SDS011;52595;51.608;7.216;2023-04-21T00:21:33;43.03;;;20.75;;
65835;SDS011;52595;51.608;7.216;2023-04-21T00:23:59;44.35;;;21.05;;
65835;SDS011;52595;51.608;7.216;2023-04-21T00:26:25;46.60;;;20.60;;
65835;SDS011;52595;51.608;7.216;2023-04-21T00:28:50;45.25;;;21.65;;
65835;SDS011;52595;51.608;7.216;2023-04-21T00:31:15;41.33;;;19.95;;
65835;SDS011;52595;51.608;7.216;2023-04-21T00:33:41;45.42;;;21.42;;
65835;SDS011;52595;51.608;7.216;2023-04-21T00:36:06;44.90;;;21.27;;
65835;SDS011;52595;51.608;7.216;2023-04-21T00:38:32;46.92;;;21.48;;
65835;SDS011;52595;51.608;7.216;2023-04-21T00:40:57;46.38;;;21.45;;
65835;SDS011;52595;51.608;7.216;2023-04-21T00:43:22;49.70;;;22.20;;
65835;SDS011;52595;51.608;7.216;2023-04-21T00:45:49;43.05;;;20.65;;
65835;SDS011;52595;51.608;7.216;2023-04-21T00:48:15;44.28;;;21.50;;
65835;SDS011;52595;51.608;7.216;2023-04-21T00:50:41;46.42;;;22.17;;
65835;SDS011;52595;51.608;7.216;2023-04-21T00:53:07;43.80;;;20.80;;
65835;SDS011;52595;51.608;7.216;2023-04-21T00:55:33;44.47;;;21.30;;
65835;SDS011;52595;51.608;7.216;2023-04-21T00:57:59;45.60;;;21.17;;
65835;SDS011;52595;51.608;7.216;2023-04-21T01:00:26;46.22;;;21.42;;
65835;SDS011;52595;51.608;7.216;2023-04-21T01:02:51;44.70;;;20.90;;
65835;SDS011;52595;51.608;7.216;2023-04-21T01:05:17;45.55;;;20.88;;
65835;SDS011;52595;51.608;7.216;2023-04-21T01:07:43;48.53;;;22.25;;
65835;SDS011;52595;51.608;7.216;2023-04-21T01:10:08;50.17;;;22.10;;
65835;SDS011;52595;51.608;7.216;2023-04-21T01:12:41;46.55;;;22.38;;
65835;SDS011;52595;51.608;7.216;2023-04-21T01:15:07;48.70;;;22.45;;
65835;SDS011;52595;51.608;7.216;2023-04-21T01:17:33;49.00;;;22.65;;
65835;SDS011;52595;51.608;7.216;2023-04-21T01:20:02;51.42;;;22.08;;
65835;SDS011;52595;51.608;7.216;2023-04-21T01:22:32;52.25;;;22.70;;
65835;SDS011;52595;51.608;7.216;2023-04-21T01:25:00;51.20;;;22.77;;
65835;SDS011;52595;51.608;7.216;2023-04-21T01:27:25;49.25;;;22.77;;
65835;SDS011;52595;51.608;7.216;2023-04-21T01:29:51;50.90;;;22.52;;
65835;SDS011;52595;51.608;7.216;2023-04-21T01:32:18;51.15;;;22.77;;
65835;SDS011;52595;51.608;7.216;2023-04-21T01:34:45;48.63;;;21.92;;
65835;SDS011;52595;51.608;7.216;2023-04-21T01:37:12;51.38;;;22.77;;
65835;SDS011;52595;51.608;7.216;2023-04-21T01:39:44;49.33;;;22.38;;
65835;SDS011;52595;51.608;7.216;2023-04-21T01:42:16;52.00;;;22.98;;
65835;SDS011;52595;51.608;7.216;2023-04-21T01:44:42;52.30;;;23.02;;
65835;SDS011;52595;51.608;7.216;2023-04-21T01:47:07;50.65;;;23.70;;
65835;SDS011;52595;51.608;7.216;2023-04-21T01:49:32;55.15;;;23.52;;
65835;SDS011;52595;51.608;7.216;2023-04-21T01:51:58;48.40;;;22.48;;
65835;SDS011;52595;51.608;7.216;2023-04-21T01:54:23;53.88;;;23.35;;
65835;SDS011;52595;51.608;7.216;2023-04-21T01:56:49;51.25;;;22.67;;
65835;SDS011;52595;51.608;7.216;2023-04-21T01:59:14;55.45;;;23.60;;
65835;SDS011;52595;51.608;7.216;2023-04-21T02:01:40;58.92;;;24.30;;
65835;SDS011;52595;51.608;7.216;2023-04-21T02:04:05;53.95;;;23.25;;
65835;SDS011;52595;51.608;7.216;2023-04-21T02:06:31;53.45;;;22.10;;
65835;SDS011;52595;51.608;7.216;2023-04-21T02:08:56;57.50;;;24.08;;
65835;SDS011;52595;51.608;7.216;2023-04-21T02:11:22;50.67;;;23.75;;
65835;SDS011;52595;51.608;7.216;2023-04-21T02:13:49;52.08;;;23.73;;
65835;SDS011;52595;51.608;7.216;2023-04-21T02:16:18;50.75;;;24.67;;
65835;SDS011;52595;51.608;7.216;2023-04-21T02:18:45;59.17;;;25.58;;
65835;SDS011;52595;51.608;7.216;2023-04-21T02:21:11;60.42;;;25.70;;
65835;SDS011;52595;51.608;7.216;2023-04-21T02:23:36;55.42;;;23.67;;
65835;SDS011;52595;51.608;7.216;2023-04-21T02:26:02;61.63;;;25.55;;
65835;SDS011;52595;51.608;7.216;2023-04-21T02:28:27;61.38;;;25.73;;
65835;SDS011;52595;51.608;7.216;2023-04-21T02:30:52;60.22;;;25.75;;
65835;SDS011;52595;51.608;7.216;2023-04-21T02:33:18;65.50;;;26.88;;
65835;SDS011;52595;51.608;7.216;2023-04-21T02:35:43;61.30;;;25.17;;
65835;SDS011;52595;51.608;7.216;2023-04-21T02:38:09;69.97;;;27.85;;
65835;SDS011;52595;51.608;7.216;2023-04-21T02:40:35;71.00;;;27.08;;
65835;SDS011;52595;51.608;7.216;2023-04-21T02:43:00;68.70;;;27.67;;
65835;SDS011;52595;51.608;7.216;2023-04-21T02:45:26;66.97;;;27.25;;
65835;SDS011;52595;51.608;7.216;2023-04-21T02:47:52;66.03;;;28.45;;
65835;SDS011;52595;51.608;7.216;2023-04-21T02:50:17;67.32;;;27.35;;
65835;SDS011;52595;51.608;7.216;2023-04-21T02:52:43;66.90;;;27.45;;
65835;SDS011;52595;51.608;7.216;2023-04-21T02:55:08;64.57;;;27.95;;
65835;SDS011;52595;51.608;7.216;2023-04-21T02:57:34;66.13;;;26.85;;
65835;SDS011;52595;51.608;7.216;2023-04-21T02:59:59;65.63;;;27.90;;
65835;SDS011;52595;51.608;7.216;2023-04-21T03:02:24;70.70;;;29.45;;
65835;SDS011;52595;51.608;7.216;2023-04-21T03:04:50;77.72;;;29.92;;
65835;SDS011;52595;51.608;7.216;2023-04-21T03:07:15;70.53;;;27.42;;
65835;SDS011;52595;51.608;7.216;2023-04-21T03:09:41;78.50;;;29.70;;
65835;SDS011;52595;51.608;7.216;2023-04-21T03:12:07;65.65;;;27.48;;
65835;SDS011;52595;51.608;7.216;2023-04-21T03:14:32;68.40;;;27.48;;
65835;SDS011;52595;51.608;7.216;2023-04-21T03:16:57;64.07;;;28.52;;
65835;SDS011;52595;51.608;7.216;2023-04-21T03:19:23;60.92;;;26.88;;
65835;SDS011;52595;51.608;7.216;2023-04-21T03:21:48;66.07;;;27.13;;
65835;SDS011;52595;51.608;7.216;2023-04-21T03:24:13;63.60;;;27.58;;
65835;SDS011;52595;51.608;7.216;2023-04-21T03:26:39;65.50;;;27.67;;
65835;SDS011;52595;51.608;7.216;2023-04-21T03:29:05;64.25;;;27.42;;
65835;SDS011;52595;51.608;7.216;2023-04-21T03:31:30;66.13;;;28.10;;
65835;SDS011;52595;51.608;7.216;2023-04-21T03:33:56;68.80;;;29.27;;
65835;SDS011;52595;51.608;7.216;2023-04-21T03:36:21;69.65;;;28.48;;
65835;SDS011;52595;51.608;7.216;2023-04-21T03:38:47;66.50;;;28.48;;
65835;SDS011;52595;51.608;7.216;2023-04-21T03:41:13;75.55;;;28.77;;
65835;SDS011;52595;51.608;7.216;2023-04-21T03:43:39;61.55;;;27.10;;
65835;SDS011;52595;51.608;7.216;2023-04-21T03:46:04;65.95;;;27.88;;
65835;SDS011;52595;51.608;7.216;2023-04-21T03:48:30;68.55;;;28.38;;
65835;SDS011;52595;51.608;7.216;2023-04-21T03:50:56;68.50;;;27.42;;
65835;SDS011;52595;51.608;7.216;2023-04-21T03:53:21;59.20;;;27.25;;
65835;SDS011;52595;51.608;7.216;2023-04-21T03:55:48;61.70;;;26.48;;
65835;SDS011;52595;51.608;7.216;2023-04-21T03:58:14;64.32;;;26.20;;
65835;SDS011;52595;51.608;7.216;2023-04-21T04:00:40;61.45;;;26.45;;
65835;SDS011;52595;51.608;7.216;2023-04-21T04:03:05;62.00;;;27.33;;
65835;SDS011;52595;51.608;7.216;2023-04-21T04:05:31;66.45;;;28.70;;
65835;SDS011;52595;51.608;7.216;2023-04-21T04:07:57;64.60;;;26.95;;
65835;SDS011;52595;51.608;7.216;2023-04-21T04:10:22;60.67;;;27.98;;
65835;SDS011;52595;51.608;7.216;2023-04-21T04:12:48;65.47;;;28.75;;
65835;SDS011;52595;51.608;7.216;2023-04-21T04:15:13;60.22;;;27.90;;
65835;SDS011;52595;51.608;7.216;2023-04-21T04:17:39;67.75;;;29.45;;
65835;SDS011;52595;51.608;7.216;2023-04-21T04:20:05;61.53;;;27.30;;
65835;SDS011;52595;51.608;7.216;2023-04-21T04:22:32;69.03;;;29.38;;
65835;SDS011;52595;51.608;7.216;2023-04-21T04:24:58;68.35;;;29.05;;
65835;SDS011;52595;51.608;7.216;2023-04-21T04:27:25;69.38;;;29.35;;
65835;SDS011;52595;51.608;7.216;2023-04-21T04:29:51;73.05;;;30.20;;
65835;SDS011;52595;51.608;7.216;2023-04-21T04:32:17;76.82;;;30.58;;
65835;SDS011;52595;51.608;7.216;2023-04-21T04:34:42;73.82;;;30.42;;
65835;SDS011;52595;51.608;7.216;2023-04-21T04:37:08;79.05;;;31.15;;
65835;SDS011;52595;51.608;7.216;2023-04-21T04:39:35;73.30;;;29.98;;
65835;SDS011;52595;51.608;7.216;2023-04-21T04:42:01;64.32;;;29.00;;
65835;SDS011;52595;51.608;7.216;2023-04-21T04:44:27;66.55;;;29.00;;
65835;SDS011;52595;51.608;7.216;2023-04-21T04:46:54;72.95;;;30.00;;
65835;SDS011;52595;51.608;7.216;2023-04-21T04:49:20;75.68;;;30.52;;
65835;SDS011;52595;51.608;7.216;2023-04-21T04:51:46;73.63;;;30.27;;
65835;SDS011;52595;51.608;7.216;2023-04-21T04:54:11;72.97;;;29.88;;
65835;SDS011;52595;51.608;7.216;2023-04-21T04:56:36;70.30;;;30.17;;
65835;SDS011;52595;51.608;7.216;2023-04-21T04:59:02;73.40;;;30.42;;
65835;SDS011;52595;51.608;7.216;2023-04-21T05:01:27;80.93;;;31.48;;
65835;SDS011;52595;51.608;7.216;2023-04-21T05:03:55;80.95;;;32.90;;
65835;SDS011;52595;51.608;7.216;2023-04-21T05:06:21;83.30;;;32.30;;
65835;SDS011;52595;51.608;7.216;2023-04-21T05:08:47;72.13;;;30.17;;
65835;SDS011;52595;51.608;7.216;2023-04-21T05:11:12;78.57;;;31.30;;
65835;SDS011;52595;51.608;7.216;2023-04-21T05:13:38;85.35;;;32.55;;
65835;SDS011;52595;51.608;7.216;2023-04-21T05:16:03;82.82;;;30.92;;
65835;SDS011;52595;51.608;7.216;2023-04-21T05:18:29;73.90;;;31.55;;
65835;SDS011;52595;51.608;7.216;2023-04-21T05:20:54;76.70;;;31.88;;
65835;SDS011;52595;51.608;7.216;2023-04-21T05:23:20;78.10;;;30.92;;
65835;SDS011;52595;51.608;7.216;2023-04-21T05:25:46;75.03;;;31.27;;
65835;SDS011;52595;51.608;7.216;2023-04-21T05:28:12;74.63;;;30.83;;
65835;SDS011;52595;51.608;7.216;2023-04-21T05:30:37;74.20;;;30.95;;
65835;SDS011;52595;51.608;7.216;2023-04-21T05:33:03;74.22;;;32.00;;
65835;SDS011;52595;51.608;7.216;2023-04-21T05:35:31;68.20;;;29.75;;
65835;SDS011;52595;51.608;7.216;2023-04-21T05:37:57;73.47;;;31.25;;
65835;SDS011;52595;51.608;7.216;2023-04-21T05:40:22;73.78;;;31.02;;
65835;SDS011;52595;51.608;7.216;2023-04-21T05:42:48;74.57;;;30.25;;
65835;SDS011;52595;51.608;7.216;2023-04-21T05:45:13;69.50;;;29.83;;
65835;SDS011;52595;51.608;7.216;2023-04-21T05:47:38;70.85;;;31.30;;
65835;SDS011;52595;51.608;7.216;2023-04-21T05:50:04;66.32;;;29.27;;
65835;SDS011;52595;51.608;7.216;2023-04-21T05:52:31;62.70;;;29.90;;
65835;SDS011;52595;51.608;7.216;2023-04-21T05:54:56;74.45;;;31.70;;
65835;SDS011;52595;51.608;7.216;2023-04-21T05:57:23;64.85;;;30.38;;
65835;SDS011;52595;51.608;7.216;2023-04-21T05:59:49;74.10;;;30.10;;
65835;SDS011;52595;51.608;7.216;2023-04-21T06:02:14;70.70;;;30.63;;
65835;SDS011;52595;51.608;7.216;2023-04-21T06:04:40;75.15;;;32.08;;
65835;SDS011;52595;51.608;7.216;2023-04-21T06:07:05;76.75;;;32.70;;
65835;SDS011;52595;51.608;7.216;2023-04-21T06:09:32;67.47;;;31.42;;
65835;SDS011;52595;51.608;7.216;2023-04-21T06:11:58;69.28;;;31.00;;
65835;SDS011;52595;51.608;7.216;2023-04-21T06:14:23;67.47;;;30.20;;
65835;SDS011;52595;51.608;7.216;2023-04-21T06:16:49;68.50;;;31.20;;
65835;SDS011;52595;51.608;7.216;2023-04-21T06:19:14;73.65;;;31.40;;
65835;SDS011;52595;51.608;7.216;2023-04-21T06:21:40;69.00;;;30.90;;
65835;SDS011;52595;51.608;7.216;2023-04-21T06:24:05;73.07;;;30.98;;
65835;SDS011;52595;51.608;7.216;2023-04-21T06:26:31;73.57;;;31.85;;
65835;SDS011;52595;51.608;7.216;2023-04-21T06:28:56;70.18;;;31.00;;
65835;SDS011;52595;51.608;7.216;2023-04-21T06:31:22;70.05;;;32.28;;
65835;SDS011;52595;51.608;7.216;2023-04-21T06:33:47;67.97;;;31.23;;
65835;SDS011;52595;51.608;7.216;2023-04-21T06:36:13;73.00;;;32.63;;
65835;SDS011;52595;51.608;7.216;2023-04-21T06:38:38;71.50;;;31.80;;
65835;SDS011;52595;51.608;7.216;2023-04-21T06:41:05;68.65;;;32.15;;
65835;SDS011;52595;51.608;7.216;2023-04-21T06:43:31;70.43;;;32.03;;
65835;SDS011;52595;51.608;7.216;2023-04-21T06:45:57;66.07;;;30.95;;
65835;SDS011;52595;51.608;7.216;2023-04-21T06:48:22;60.35;;;29.75;;
65835;SDS011;52595;51.608;7.216;2023-04-21T06:50:48;62.50;;;31.15;;
65835;SDS011;52595;51.608;7.216;2023-04-21T06:53:14;65.53;;;30.85;;
65835;SDS011;52595;51.608;7.216;2023-04-21T06:55:41;62.67;;;30.70;;
65835;SDS011;52595;51.608;7.216;2023-04-21T06:58:07;56.90;;;30.48;;
65835;SDS011;52595;51.608;7.216;2023-04-21T07:00:38;58.95;;;30.25;;
65835;SDS011;52595;51.608;7.216;2023-04-21T07:03:04;52.60;;;29.13;;
65835;SDS011;52595;51.608;7.216;2023-04-21T07:05:30;55.03;;;28.15;;
65835;SDS011;52595;51.608;7.216;2023-04-21T07:07:56;54.60;;;28.45;;
65835;SDS011;52595;51.608;7.216;2023-04-21T07:10:24;55.78;;;28.45;;
65835;SDS011;52595;51.608;7.216;2023-04-21T07:12:50;52.20;;;29.52;;
65835;SDS011;52595;51.608;7.216;2023-04-21T07:15:15;53.35;;;28.65;;
65835;SDS011;52595;51.608;7.216;2023-04-21T07:17:41;56.50;;;28.67;;
65835;SDS011;52595;51.608;7.216;2023-04-21T07:20:07;52.55;;;28.38;;
65835;SDS011;52595;51.608;7.216;2023-04-21T07:22:32;51.17;;;28.58;;
65835;SDS011;52595;51.608;7.216;2023-04-21T07:25:00;54.72;;;29.70;;
65835;SDS011;52595;51.608;7.216;2023-04-21T07:27:30;52.23;;;27.10;;
65835;SDS011;52595;51.608;7.216;2023-04-21T07:29:55;52.53;;;28.65;;
65835;SDS011;52595;51.608;7.216;2023-04-21T07:32:20;48.47;;;27.88;;
65835;SDS011;52595;51.608;7.216;2023-04-21T07:34:46;52.00;;;29.48;;
65835;SDS011;52595;51.608;7.216;2023-04-21T07:37:12;51.72;;;28.35;;
65835;SDS011;52595;51.608;7.216;2023-04-21T07:39:37;52.10;;;28.48;;
65835;SDS011;52595;51.608;7.216;2023-04-21T07:42:03;44.35;;;26.85;;
65835;SDS011;52595;51.608;7.216;2023-04-21T07:44:32;50.05;;;26.08;;
65835;SDS011;52595;51.608;7.216;2023-04-21T07:46:57;47.72;;;26.88;;
65835;SDS011;52595;51.608;7.216;2023-04-21T07:49:23;47.55;;;27.02;;
65835;SDS011;52595;51.608;7.216;2023-04-21T07:51:48;43.97;;;25.73;;
65835;SDS011;52595;51.608;7.216;2023-04-21T07:54:13;44.72;;;26.08;;
65835;SDS011;52595;51.608;7.216;2023-04-21T07:56:39;46.47;;;26.75;;
65835;SDS011;52595;51.608;7.216;2023-04-21T07:59:04;40.08;;;25.75;;
65835;SDS011;52595;51.608;7.216;2023-04-21T08:01:30;43.83;;;26.65;;
65835;SDS011;52595;51.608;7.216;2023-04-21T08:03:55;42.25;;;25.73;;
65835;SDS011;52595;51.608;7.216;2023-04-21T08:06:21;45.85;;;25.85;;
65835;SDS011;52595;51.608;7.216;2023-04-21T08:08:46;43.75;;;25.15;;
65835;SDS011;52595;51.608;7.216;2023-04-21T08:11:12;51.45;;;27.45;;
65835;SDS011;52595;51.608;7.216;2023-04-21T08:13:37;42.92;;;25.30;;
65835;SDS011;52595;51.608;7.216;2023-04-21T08:16:02;40.75;;;26.40;;
65835;SDS011;52595;51.608;7.216;2023-04-21T08:18:28;44.45;;;25.90;;
65835;SDS011;52595;51.608;7.216;2023-04-21T08:20:54;41.42;;;24.42;;
65835;SDS011;52595;51.608;7.216;2023-04-21T08:23:21;40.08;;;25.20;;
65835;SDS011;52595;51.608;7.216;2023-04-21T08:25:47;38.13;;;23.60;;
65835;SDS011;52595;51.608;7.216;2023-04-21T08:28:13;39.28;;;23.13;;
65835;SDS011;52595;51.608;7.216;2023-04-21T08:30:39;38.65;;;23.85;;
65835;SDS011;52595;51.608;7.216;2023-04-21T08:33:06;37.33;;;23.23;;
65835;SDS011;52595;51.608;7.216;2023-04-21T08:35:32;38.15;;;23.05;;
65835;SDS011;52595;51.608;7.216;2023-04-21T08:37:58;38.90;;;22.75;;
65835;SDS011;52595;51.608;7.216;2023-04-21T08:40:31;37.67;;;22.85;;
65835;SDS011;52595;51.608;7.216;2023-04-21T08:42:58;37.38;;;22.27;;
65835;SDS011;52595;51.608;7.216;2023-04-21T08:45:24;33.88;;;22.05;;
65835;SDS011;52595;51.608;7.216;2023-04-21T08:47:50;35.95;;;22.50;;
65835;SDS011;52595;51.608;7.216;2023-04-21T08:50:16;35.33;;;22.20;;
65835;SDS011;52595;51.608;7.216;2023-04-21T08:52:41;35.17;;;22.70;;
65835;SDS011;52595;51.608;7.216;2023-04-21T08:55:06;37.67;;;23.45;;
65835;SDS011;52595;51.608;7.216;2023-04-21T08:57:33;36.40;;;22.30;;
65835;SDS011;52595;51.608;7.216;2023-04-21T08:59:59;33.80;;;21.75;;
65835;SDS011;52595;51.608;7.216;2023-04-21T09:02:24;34.47;;;22.17;;
65835;SDS011;52595;51.608;7.216;2023-04-21T09:04:50;33.15;;;22.15;;
65835;SDS011;52595;51.608;7.216;2023-04-21T09:07:32;37.17;;;22.30;;
65835;SDS011;52595;51.608;7.216;2023-04-21T09:10:00;37.20;;;21.40;;
65835;SDS011;52595;51.608;7.216;2023-04-21T09:12:26;32.85;;;20.98;;
65835;SDS011;52595;51.608;7.216;2023-04-21T09:14:52;32.35;;;21.20;;
65835;SDS011;52595;51.608;7.216;2023-04-21T09:17:20;35.95;;;21.52;;
65835;SDS011;52595;51.608;7.216;2023-04-21T09:19:52;36.05;;;21.40;;
65835;SDS011;52595;51.608;7.216;2023-04-21T09:22:18;32.45;;;20.67;;
65835;SDS011;52595;51.608;7.216;2023-04-21T09:24:44;33.80;;;21.58;;
65835;SDS011;52595;51.608;7.216;2023-04-21T09:27:10;34.92;;;20.85;;
65835;SDS011;52595;51.608;7.216;2023-04-21T09:29:36;31.55;;;20.25;;
65835;SDS011;52595;51.608;7.216;2023-04-21T09:32:01;33.03;;;21.15;;
65835;SDS011;52595;51.608;7.216;2023-04-21T09:34:27;34.03;;;21.15;;
65835;SDS011;52595;51.608;7.216;2023-04-21T09:36:59;29.17;;;20.67;;
65835;SDS011;52595;51.608;7.216;2023-04-21T09:39:27;32.00;;;21.33;;
65835;SDS011;52595;51.608;7.216;2023-04-21T09:41:54;33.38;;;21.10;;
65835;SDS011;52595;51.608;7.216;2023-04-21T09:44:19;32.10;;;20.70;;
65835;SDS011;52595;51.608;7.216;2023-04-21T09:46:47;29.92;;;20.30;;
65835;SDS011;52595;51.608;7.216;2023-04-21T09:49:15;32.63;;;20.73;;
65835;SDS011;52595;51.608;7.216;2023-04-21T09:51:42;32.00;;;20.13;;
65835;SDS011;52595;51.608;7.216;2023-04-21T09:54:17;30.60;;;20.20;;
65835;SDS011;52595;51.608;7.216;2023-04-21T09:56:48;30.58;;;19.67;;
65835;SDS011;52595;51.608;7.216;2023-04-21T09:59:25;31.43;;;20.40;;
65835;SDS011;52595;51.608;7.216;2023-04-21T10:01:53;29.65;;;19.83;;
65835;SDS011;52595;51.608;7.216;2023-04-21T10:04:20;32.67;;;20.08;;
65835;SDS011;52595;51.608;7.216;2023-04-21T10:06:47;31.05;;;20.30;;
65835;SDS011;52595;51.608;7.216;2023-04-21T10:09:14;29.52;;;19.63;;
65835;SDS011;52595;51.608;7.216;2023-04-21T10:11:42;30.25;;;19.80;;
65835;SDS011;52595;51.608;7.216;2023-04-21T10:14:08;30.17;;;20.63;;
65835;SDS011;52595;51.608;7.216;2023-04-21T10:16:36;30.80;;;20.20;;
65835;SDS011;52595;51.608;7.216;2023-04-21T10:19:02;30.48;;;20.17;;
65835;SDS011;52595;51.608;7.216;2023-04-21T10:21:49;31.08;;;20.17;;
65835;SDS011;52595;51.608;7.216;2023-04-21T10:24:14;29.92;;;20.38;;
65835;SDS011;52595;51.608;7.216;2023-04-21T10:26:40;32.00;;;20.40;;
65835;SDS011;52595;51.608;7.216;2023-04-21T10:29:06;27.48;;;19.00;;
65835;SDS011;52595;51.608;7.216;2023-04-21T10:34:18;30.38;;;19.15;;
65835;SDS011;52595;51.608;7.216;2023-04-21T10:39:11;28.13;;;19.02;;
65835;SDS011;52595;51.608;7.216;2023-04-21T10:41:56;30.85;;;18.42;;
65835;SDS011;52595;51.608;7.216;2023-04-21T10:44:44;27.30;;;17.98;;
65835;SDS011;52595;51.608;7.216;2023-04-21T10:47:27;27.85;;;18.40;;
65835;SDS011;52595;51.608;7.216;2023-04-21T10:49:55;28.77;;;18.48;;
65835;SDS011;52595;51.608;7.216;2023-04-21T10:52:26;27.77;;;18.33;;
65835;SDS011;52595;51.608;7.216;2023-04-21T10:57:20;28.25;;;18.35;;
65835;SDS011;52595;51.608;7.216;2023-04-21T10:59:46;26.23;;;18.13;;
65835;SDS011;52595;51.608;7.216;2023-04-21T11:02:14;23.67;;;17.50;;
65835;SDS011;52595;51.608;7.216;2023-04-21T11:04:42;28.65;;;18.17;;
65835;SDS011;52595;51.608;7.216;2023-04-21T11:09:38;25.45;;;17.52;;
65835;SDS011;52595;51.608;7.216;2023-04-21T11:12:06;27.88;;;18.27;;
65835;SDS011;52595;51.608;7.216;2023-04-21T11:14:34;24.27;;;16.42;;
65835;SDS011;52595;51.608;7.216;2023-04-21T11:17:01;26.30;;;17.73;;
65835;SDS011;52595;51.608;7.216;2023-04-21T11:19:27;25.17;;;17.63;;
65835;SDS011;52595;51.608;7.216;2023-04-21T11:21:55;24.83;;;18.15;;
65835;SDS011;52595;51.608;7.216;2023-04-21T11:24:21;29.30;;;18.52;;
65835;SDS011;52595;51.608;7.216;2023-04-21T11:26:46;27.60;;;18.85;;
65835;SDS011;52595;51.608;7.216;2023-04-21T11:29:12;28.30;;;17.48;;
65835;SDS011;52595;51.608;7.216;2023-04-21T11:31:39;26.85;;;18.02;;
65835;SDS011;52595;51.608;7.216;2023-04-21T11:34:07;26.58;;;18.20;;
65835;SDS011;52595;51.608;7.216;2023-04-21T11:36:33;25.80;;;17.55;;
65835;SDS011;52595;51.608;7.216;2023-04-21T11:39:07;29.90;;;18.38;;
65835;SDS011;52595;51.608;7.216;2023-04-21T11:41:34;24.98;;;16.90;;
65835;SDS011;52595;51.608;7.216;2023-04-21T11:44:00;27.25;;;17.73;;
65835;SDS011;52595;51.608;7.216;2023-04-21T11:46:26;25.92;;;17.40;;
65835;SDS011;52595;51.608;7.216;2023-04-21T11:49:00;25.45;;;17.92;;
65835;SDS011;52595;51.608;7.216;2023-04-21T11:53:59;25.27;;;17.15;;
65835;SDS011;52595;51.608;7.216;2023-04-21T11:56:24;25.05;;;17.13;;
65835;SDS011;52595;51.608;7.216;2023-04-21T11:58:50;24.55;;;17.42;;
65835;SDS011;52595;51.608;7.216;2023-04-21T12:01:20;22.50;;;16.10;;
65835;SDS011;52595;51.608;7.216;2023-04-21T12:03:50;26.08;;;17.65;;
65835;SDS011;52595;51.608;7.216;2023-04-21T12:06:20;27.73;;;18.33;;
65835;SDS011;52595;51.608;7.216;2023-04-21T12:08:46;27.00;;;18.35;;
65835;SDS011;52595;51.608;7.216;2023-04-21T12:11:14;24.25;;;17.42;;
65835;SDS011;52595;51.608;7.216;2023-04-21T12:13:41;26.30;;;17.77;;
65835;SDS011;52595;51.608;7.216;2023-04-21T12:16:06;26.20;;;18.55;;
65835;SDS011;52595;51.608;7.216;2023-04-21T12:18:31;26.73;;;18.85;;
65835;SDS011;52595;51.608;7.216;2023-04-21T12:20:59;26.20;;;18.10;;
65835;SDS011;52595;51.608;7.216;2023-04-21T12:23:25;25.00;;;18.08;;
65835;SDS011;52595;51.608;7.216;2023-04-21T12:25:50;25.02;;;17.23;;
65835;SDS011;52595;51.608;7.216;2023-04-21T12:28:17;23.95;;;17.45;;
65835;SDS011;52595;51.608;7.216;2023-04-21T12:30:42;25.75;;;18.20;;
65835;SDS011;52595;51.608;7.216;2023-04-21T12:33:08;25.63;;;18.38;;
65835;SDS011;52595;51.608;7.216;2023-04-21T12:35:34;24.75;;;17.35;;
65835;SDS011;52595;51.608;7.216;2023-04-21T12:38:00;23.73;;;17.15;;
65835;SDS011;52595;51.608;7.216;2023-04-21T12:40:25;26.50;;;17.52;;
65835;SDS011;52595;51.608;7.216;2023-04-21T12:42:51;25.25;;;17.50;;
65835;SDS011;52595;51.608;7.216;2023-04-21T12:45:16;24.80;;;17.25;;
65835;SDS011;52595;51.608;7.216;2023-04-21T12:47:42;25.52;;;17.33;;
65835;SDS011;52595;51.608;7.216;2023-04-21T12:50:07;24.90;;;17.55;;
65835;SDS011;52595;51.608;7.216;2023-04-21T12:52:34;26.70;;;17.13;;
65835;SDS011;52595;51.608;7.216;2023-04-21T12:55:00;24.48;;;17.67;;
65835;SDS011;52595;51.608;7.216;2023-04-21T12:57:25;24.17;;;17.20;;
65835;SDS011;52595;51.608;7.216;2023-04-21T12:59:51;24.40;;;17.23;;
65835;SDS011;52595;51.608;7.216;2023-04-21T13:02:16;23.17;;;16.80;;
65835;SDS011;52595;51.608;7.216;2023-04-21T13:04:42;24.70;;;17.52;;
65835;SDS011;52595;51.608;7.216;2023-04-21T13:07:07;24.55;;;17.58;;
65835;SDS011;52595;51.608;7.216;2023-04-21T13:09:33;23.67;;;16.83;;
65835;SDS011;52595;51.608;7.216;2023-04-21T13:11:58;23.00;;;17.40;;
65835;SDS011;52595;51.608;7.216;2023-04-21T13:14:24;24.65;;;17.02;;
65835;SDS011;52595;51.608;7.216;2023-04-21T13:16:49;23.00;;;16.70;;
65835;SDS011;52595;51.608;7.216;2023-04-21T13:19:15;20.50;;;16.50;;
65835;SDS011;52595;51.608;7.216;2023-04-21T13:21:40;21.10;;;15.95;;
65835;SDS011;52595;51.608;7.216;2023-04-21T13:24:06;21.45;;;15.80;;
65835;SDS011;52595;51.608;7.216;2023-04-21T13:26:31;19.95;;;15.02;;
65835;SDS011;52595;51.608;7.216;2023-04-21T13:28:59;23.88;;;16.25;;
65835;SDS011;52595;51.608;7.216;2023-04-21T13:31:24;20.50;;;15.70;;
65835;SDS011;52595;51.608;7.216;2023-04-21T13:33:50;19.85;;;15.27;;
65835;SDS011;52595;51.608;7.216;2023-04-21T13:36:15;22.17;;;15.93;;
65835;SDS011;52595;51.608;7.216;2023-04-21T13:38:41;19.40;;;15.45;;
65835;SDS011;52595;51.608;7.216;2023-04-21T13:41:06;21.73;;;15.57;;
65835;SDS011;52595;51.608;7.216;2023-04-21T13:43:32;20.38;;;15.45;;
65835;SDS011;52595;51.608;7.216;2023-04-21T13:45:58;20.58;;;14.90;;
65835;SDS011;52595;51.608;7.216;2023-04-21T13:48:23;22.92;;;15.30;;
65835;SDS011;52595;51.608;7.216;2023-04-21T13:50:49;20.80;;;15.88;;
65835;SDS011;52595;51.608;7.216;2023-04-21T13:53:15;23.50;;;16.65;;
65835;SDS011;52595;51.608;7.216;2023-04-21T13:55:41;21.25;;;15.63;;
65835;SDS011;52595;51.608;7.216;2023-04-21T13:58:08;21.75;;;16.55;;
65835;SDS011;52595;51.608;7.216;2023-04-21T14:00:33;23.20;;;15.30;;
65835;SDS011;52595;51.608;7.216;2023-04-21T14:02:59;20.30;;;15.20;;
65835;SDS011;52595;51.608;7.216;2023-04-21T14:05:25;22.85;;;15.98;;
65835;SDS011;52595;51.608;7.216;2023-04-21T14:07:50;22.20;;;15.30;;
65835;SDS011;52595;51.608;7.216;2023-04-21T14:10:16;19.17;;;15.07;;
65835;SDS011;52595;51.608;7.216;2023-04-21T14:12:41;21.02;;;14.80;;
65835;SDS011;52595;51.608;7.216;2023-04-21T14:15:09;21.77;;;15.20;;
65835;SDS011;52595;51.608;7.216;2023-04-21T14:17:35;19.83;;;14.77;;
65835;SDS011;52595;51.608;7.216;2023-04-21T14:20:00;21.25;;;15.43;;
65835;SDS011;52595;51.608;7.216;2023-04-21T14:22:26;17.73;;;13.75;;
65835;SDS011;52595;51.608;7.216;2023-04-21T14:24:52;19.20;;;13.43;;
65835;SDS011;52595;51.608;7.216;2023-04-21T14:27:17;20.02;;;13.50;;
65835;SDS011;52595;51.608;7.216;2023-04-21T14:29:43;18.88;;;13.70;;